createdAt,value
2022-08-30T00:00:32.291Z,23.28
2022-08-30T00:03:46.633Z,23.17
2022-08-30T00:06:49.031Z,23.19
2022-08-30T00:09:51.889Z,23.32
2022-08-30T00:12:54.937Z,23.17
2022-08-30T00:15:57.785Z,23.33
2022-08-30T00:19:01.593Z,23.32
2022-08-30T00:22:05.108Z,23.29
2022-08-30T00:25:08.547Z,23.33
2022-08-30T00:28:13.603Z,23.32
2022-08-30T00:31:16.083Z,23.20
2022-08-30T00:34:18.696Z,23.29
2022-08-30T00:37:22.050Z,23.27
2022-08-30T00:40:28.734Z,23.13
2022-08-30T00:43:36.755Z,23.13
2022-08-30T00:46:39.612Z,23.16
2022-08-30T00:49:45.321Z,23.14
2022-08-30T00:52:54.281Z,23.14
2022-08-30T00:55:59.390Z,23.01
2022-08-30T00:59:05.152Z,23.11
2022-08-30T01:02:07.600Z,22.98
2022-08-30T01:05:16.164Z,23.03
2022-08-30T01:08:23.882Z,23.00
2022-08-30T01:11:26.421Z,22.92
2022-08-30T01:14:28.802Z,22.90
2022-08-30T01:17:31.403Z,22.89
2022-08-30T01:20:41.839Z,22.75
2022-08-30T01:23:47.507Z,22.82
2022-08-30T01:26:49.781Z,22.77
2022-08-30T01:29:53.389Z,22.66
2022-08-30T01:33:04.020Z,22.70
2022-08-30T01:36:12.276Z,22.56
2022-08-30T01:39:17.084Z,22.66
2022-08-30T01:42:20.078Z,22.56
2022-08-30T01:45:22.413Z,22.53
2022-08-30T01:48:31.023Z,22.47
2022-08-30T01:51:33.715Z,22.57
2022-08-30T01:54:38.639Z,22.52
2022-08-30T01:57:41.453Z,22.51
2022-08-30T02:00:43.996Z,22.47
2022-08-30T02:03:47.495Z,22.48
2022-08-30T02:06:50.032Z,22.32
2022-08-30T02:09:54.402Z,22.42
2022-08-30T02:12:56.962Z,22.39
2022-08-30T02:16:00.079Z,22.40
2022-08-30T02:19:03.112Z,22.41
2022-08-30T02:22:06.018Z,22.35
2022-08-30T02:25:11.172Z,22.25
2022-08-30T02:28:21.314Z,22.31
2022-08-30T02:31:29.487Z,22.23
2022-08-30T02:34:32.123Z,22.37
2022-08-30T02:37:34.714Z,22.25
2022-08-30T02:40:37.090Z,22.23
2022-08-30T02:43:41.921Z,22.24
2022-08-30T02:46:45.492Z,22.20
2022-08-30T02:49:48.028Z,22.31
2022-08-30T02:52:50.278Z,22.19
2022-08-30T02:55:52.802Z,22.29
2022-08-30T02:58:55.322Z,22.27
2022-08-30T03:01:58.105Z,22.15
2022-08-30T03:05:00.550Z,22.17
2022-08-30T03:08:03.531Z,22.22
2022-08-30T03:11:06.442Z,22.21
2022-08-30T03:14:09.438Z,22.14
2022-08-30T03:17:13.802Z,22.13
2022-08-30T03:20:19.702Z,22.05
2022-08-30T03:23:22.150Z,22.06
2022-08-30T03:26:24.727Z,22.02
2022-08-30T03:29:26.964Z,22.02
2022-08-30T03:32:29.500Z,21.98
2022-08-30T03:35:33.241Z,21.86
2022-08-30T03:38:36.177Z,21.95
2022-08-30T03:41:38.805Z,21.81
2022-08-30T03:44:41.957Z,21.85
2022-08-30T03:47:45.507Z,21.88
2022-08-30T03:50:48.028Z,21.87
2022-08-30T03:53:50.400Z,21.88
2022-08-30T03:56:53.104Z,21.90
2022-08-30T03:59:55.399Z,21.81
2022-08-30T04:02:57.904Z,21.91
2022-08-30T04:06:01.058Z,21.91
2022-08-30T04:09:06.699Z,21.89
2022-08-30T04:12:09.371Z,21.74
2022-08-30T04:15:12.115Z,21.88
2022-08-30T04:18:15.728Z,21.90
2022-08-30T04:21:18.938Z,21.63
2022-08-30T04:24:45.289Z,21.85
2022-08-30T04:28:00.337Z,21.85
2022-08-30T04:31:35.354Z,21.82
2022-08-30T04:34:56.129Z,21.82
2022-08-30T04:38:04.590Z,21.45
2022-08-30T04:41:16.482Z,21.81
2022-08-30T04:44:19.566Z,21.84
2022-08-30T04:47:22.147Z,22.00
2022-08-30T04:50:24.836Z,22.03
2022-08-30T04:53:28.557Z,22.08
2022-08-30T04:56:30.839Z,21.89
2022-08-30T04:59:35.576Z,22.06
2022-08-30T05:02:43.135Z,22.03
2022-08-30T05:05:50.118Z,22.15
2022-08-30T05:08:53.883Z,22.06
2022-08-30T05:11:56.438Z,22.06
2022-08-30T05:14:58.715Z,22.15
2022-08-30T05:18:01.604Z,22.33
2022-08-30T05:21:09.212Z,22.33
2022-08-30T05:24:11.956Z,22.47
2022-08-30T05:27:14.260Z,22.50
2022-08-30T05:30:17.782Z,22.55
2022-08-30T05:33:20.568Z,22.73
2022-08-30T05:36:25.854Z,22.69
2022-08-30T05:39:28.747Z,22.79
2022-08-30T05:42:50.685Z,22.88
2022-08-30T05:46:01.008Z,22.89
2022-08-30T05:49:06.463Z,22.95
2022-08-30T05:52:11.123Z,23.16
2022-08-30T05:55:13.943Z,23.14
2022-08-30T05:58:16.303Z,23.29
2022-08-30T06:01:25.207Z,23.36
2022-08-30T06:04:27.970Z,23.24
2022-08-30T06:07:30.248Z,23.25
2022-08-30T06:10:32.776Z,23.34
2022-08-30T06:13:35.208Z,23.55
2022-08-30T06:16:39.702Z,23.55
2022-08-30T06:19:49.529Z,23.61
2022-08-30T06:22:52.150Z,23.71
2022-08-30T06:25:55.203Z,23.62
2022-08-30T06:28:58.675Z,23.76
2022-08-30T06:32:00.902Z,23.78
2022-08-30T06:35:05.449Z,23.81
2022-08-30T06:38:07.669Z,23.93
2022-08-30T06:41:14.329Z,24.00
2022-08-30T06:44:17.650Z,24.09
2022-08-30T06:47:20.386Z,24.19
2022-08-30T06:50:22.618Z,24.35
2022-08-30T06:53:25.982Z,24.60
2022-08-30T06:56:28.347Z,24.82
2022-08-30T06:59:32.469Z,25.03
2022-08-30T07:02:36.858Z,25.09
2022-08-30T07:05:39.527Z,25.37
2022-08-30T07:08:43.006Z,25.43
2022-08-30T07:11:45.613Z,25.53
2022-08-30T07:14:48.206Z,25.87
2022-08-30T07:18:09.304Z,25.93
2022-08-30T07:21:15.917Z,25.89
2022-08-30T07:24:20.044Z,25.93
2022-08-30T07:27:22.314Z,26.08
2022-08-30T07:30:24.963Z,26.27
2022-08-30T07:33:27.216Z,26.44
2022-08-30T07:36:30.018Z,26.68
2022-08-30T07:39:33.334Z,26.56
2022-08-30T07:42:36.615Z,26.90
2022-08-30T07:45:39.203Z,26.82
2022-08-30T07:48:41.993Z,26.69
2022-08-30T07:51:46.651Z,26.60
2022-08-30T07:54:52.798Z,26.38
2022-08-30T07:57:55.408Z,26.51
2022-08-30T08:00:59.629Z,26.60
2022-08-30T08:04:02.392Z,26.83
2022-08-30T08:07:04.838Z,26.90
2022-08-30T08:10:07.916Z,27.25
2022-08-30T08:13:10.612Z,27.51
2022-08-30T08:16:13.182Z,27.84
2022-08-30T08:19:19.693Z,28.30
2022-08-30T08:22:26.473Z,28.56
2022-08-30T08:25:29.040Z,28.03
2022-08-30T08:28:33.082Z,28.36
2022-08-30T08:31:38.705Z,28.25
2022-08-30T08:34:43.587Z,28.24
2022-08-30T08:37:46.033Z,28.17
2022-08-30T08:41:21.845Z,28.40
2022-08-30T08:44:37.195Z,28.47
2022-08-30T08:48:04.110Z,28.47
2022-08-30T08:51:29.318Z,28.58
2022-08-30T08:54:44.500Z,28.75
2022-08-30T08:57:47.897Z,28.63
2022-08-30T09:00:51.529Z,29.45
2022-08-30T09:03:54.650Z,30.30
2022-08-30T09:07:01.391Z,30.76
2022-08-30T09:10:04.780Z,31.65
2022-08-30T09:13:07.320Z,32.37
2022-08-30T09:16:09.681Z,33.22
2022-08-30T09:19:41.342Z,33.68
2022-08-30T09:22:46.552Z,33.96
2022-08-30T09:26:09.717Z,34.08
2022-08-30T09:29:18.059Z,34.33
2022-08-30T09:32:42.231Z,34.23
2022-08-30T09:35:48.161Z,33.72
2022-08-30T09:38:59.446Z,32.84
2022-08-30T09:42:28.831Z,32.35
2022-08-30T09:45:36.151Z,32.44
2022-08-30T09:48:41.080Z,32.67
2022-08-30T09:52:02.744Z,32.80
2022-08-30T09:55:25.486Z,33.06
2022-08-30T09:58:53.264Z,31.79
2022-08-30T10:02:24.853Z,31.46
2022-08-30T10:05:39.809Z,31.65
2022-08-30T10:08:44.761Z,31.87
2022-08-30T10:12:05.400Z,32.99
2022-08-30T10:15:31.668Z,33.98
2022-08-30T10:18:44.005Z,34.56
2022-08-30T10:21:52.322Z,34.42
2022-08-30T10:25:05.223Z,34.66
2022-08-30T10:28:10.851Z,34.16
2022-08-30T10:31:37.127Z,34.29
2022-08-30T10:34:45.358Z,33.93
2022-08-30T10:37:54.665Z,33.39
2022-08-30T10:41:24.831Z,32.51
2022-08-30T10:44:36.066Z,33.17
2022-08-30T10:47:53.876Z,33.31
2022-08-30T10:51:02.343Z,34.01
2022-08-30T10:54:32.005Z,33.65
2022-08-30T10:57:34.819Z,33.92
2022-08-30T11:00:58.847Z,34.50
2022-08-30T11:04:20.019Z,34.37
2022-08-30T11:07:31.207Z,34.63
2022-08-30T11:10:52.800Z,35.10
2022-08-30T11:13:57.512Z,35.10
2022-08-30T11:17:02.277Z,35.09
2022-08-30T11:20:19.224Z,35.42
2022-08-30T11:23:25.776Z,34.79
2022-08-30T11:26:46.926Z,34.35
2022-08-30T11:29:49.727Z,34.47
2022-08-30T11:33:11.466Z,34.55
2022-08-30T11:36:37.729Z,34.07
2022-08-30T11:39:49.344Z,33.84
2022-08-30T11:42:54.385Z,33.12
2022-08-30T11:46:26.357Z,33.09
2022-08-30T11:49:50.219Z,33.49
2022-08-30T11:53:03.629Z,33.18
2022-08-30T11:56:24.116Z,32.53
2022-08-30T11:59:44.022Z,32.45
2022-08-30T12:02:59.231Z,32.24
2022-08-30T12:06:07.153Z,32.00
2022-08-30T12:09:35.193Z,31.53
2022-08-30T12:12:37.640Z,31.82
2022-08-30T12:15:52.388Z,32.44
2022-08-30T12:19:19.155Z,33.10
2022-08-30T12:22:22.423Z,33.58
2022-08-30T12:25:33.814Z,33.99
2022-08-30T12:28:37.761Z,34.19
2022-08-30T12:31:44.613Z,34.21
2022-08-30T12:34:46.852Z,34.42
2022-08-30T12:38:00.815Z,33.60
2022-08-30T12:41:06.256Z,33.86
2022-08-30T12:44:37.800Z,34.07
2022-08-30T12:48:05.653Z,34.16
2022-08-30T12:51:26.380Z,32.97
2022-08-30T12:54:30.606Z,33.30
2022-08-30T12:58:01.600Z,33.42
2022-08-30T13:01:28.855Z,32.66
2022-08-30T13:04:31.432Z,32.76
2022-08-30T13:07:36.129Z,32.84
2022-08-30T13:11:07.921Z,33.01
2022-08-30T13:14:31.185Z,33.23
2022-08-30T13:17:34.906Z,32.49
2022-08-30T13:20:37.238Z,32.56
2022-08-30T13:23:39.984Z,32.35
2022-08-30T13:26:42.420Z,32.02
2022-08-30T13:29:48.153Z,31.85
2022-08-30T13:32:50.445Z,31.76
2022-08-30T13:35:54.996Z,31.58
2022-08-30T13:38:59.183Z,31.68
2022-08-30T13:48:49.508Z,31.43
2022-08-30T13:52:19.020Z,31.26
2022-08-30T13:55:17.308Z,31.17
2022-08-30T13:58:19.975Z,30.99
2022-08-30T14:01:22.682Z,30.68
2022-08-30T14:04:25.374Z,30.49
2022-08-30T14:07:27.889Z,30.28
2022-08-30T14:10:39.416Z,30.27
2022-08-30T14:17:12.675Z,30.25
2022-08-30T14:20:17.754Z,30.28
2022-08-30T14:23:20.679Z,30.22
2022-08-30T14:26:45.768Z,30.00
2022-08-30T14:29:49.353Z,29.90
2022-08-30T14:32:51.466Z,29.74
2022-08-30T14:35:53.879Z,29.65
2022-08-30T14:38:58.083Z,29.49
2022-08-30T14:42:04.198Z,29.31
2022-08-30T14:45:07.435Z,29.22
2022-08-30T14:48:11.530Z,29.11
2022-08-30T14:51:17.099Z,29.01
2022-08-30T14:54:25.679Z,28.85
2022-08-30T14:57:28.528Z,28.79
2022-08-30T15:00:31.455Z,28.65
2022-08-30T15:03:33.772Z,28.61
2022-08-30T15:06:38.245Z,28.70
2022-08-30T15:09:40.473Z,28.65
2022-08-30T15:12:42.995Z,28.50
2022-08-30T15:15:46.568Z,28.50
2022-08-30T15:18:51.097Z,28.39
2022-08-30T15:21:53.393Z,28.23
2022-08-30T15:24:56.000Z,28.18
2022-08-30T15:27:58.286Z,28.13
2022-08-30T15:31:05.071Z,28.11
2022-08-30T15:34:14.505Z,28.08
2022-08-30T15:37:22.382Z,28.06
2022-08-30T15:40:24.751Z,28.17
2022-08-30T15:43:29.392Z,28.03
2022-08-30T15:46:36.596Z,28.14
2022-08-30T15:49:39.492Z,28.14
2022-08-30T15:52:41.718Z,28.15
2022-08-30T15:55:46.394Z,28.12
2022-08-30T15:58:48.754Z,28.08
2022-08-30T16:01:55.599Z,27.98
2022-08-30T16:04:59.966Z,28.08
2022-08-30T16:08:02.600Z,28.07
2022-08-30T16:11:07.289Z,28.05
2022-08-30T16:14:11.495Z,28.03
2022-08-30T16:17:14.206Z,27.90
2022-08-30T16:20:16.966Z,27.86
2022-08-30T16:23:19.576Z,27.86
2022-08-30T16:26:24.518Z,27.84
2022-08-30T16:29:28.125Z,27.75
2022-08-30T16:32:31.955Z,27.75
2022-08-30T16:35:34.525Z,27.74
2022-08-30T16:38:37.927Z,27.78
2022-08-30T16:41:44.369Z,27.75
2022-08-30T16:44:46.863Z,27.74
2022-08-30T16:47:49.485Z,27.71
2022-08-30T16:50:54.386Z,27.78
2022-08-30T16:54:03.300Z,27.63
2022-08-30T16:57:06.615Z,27.69
2022-08-30T17:00:13.108Z,27.64
2022-08-30T17:03:17.707Z,27.55
2022-08-30T17:06:23.734Z,27.39
2022-08-30T17:09:26.005Z,27.42
2022-08-30T17:12:28.718Z,27.39
2022-08-30T17:15:30.967Z,27.35
2022-08-30T17:18:35.680Z,27.21
2022-08-30T17:21:39.555Z,27.23
2022-08-30T17:24:42.144Z,27.17
2022-08-30T17:27:46.246Z,27.11
2022-08-30T17:30:48.979Z,27.04
2022-08-30T17:33:59.150Z,26.95
2022-08-30T17:37:04.612Z,26.94
2022-08-30T17:40:07.577Z,26.89
2022-08-30T17:43:20.398Z,26.80
2022-08-30T17:46:23.067Z,26.71
2022-08-30T17:49:33.334Z,26.52
2022-08-30T17:52:36.457Z,26.59
2022-08-30T17:55:41.570Z,26.41
2022-08-30T17:58:47.179Z,26.34
2022-08-30T18:01:49.732Z,26.27
2022-08-30T18:04:57.097Z,26.33
2022-08-30T18:07:59.339Z,26.27
2022-08-30T18:11:06.716Z,26.18
2022-08-30T18:14:11.428Z,26.10
2022-08-30T18:17:15.659Z,26.06
2022-08-30T18:20:18.541Z,25.96
2022-08-30T18:23:24.216Z,25.95
2022-08-30T18:26:29.520Z,25.92
2022-08-30T18:29:32.552Z,25.60
2022-08-30T18:32:38.047Z,25.83
2022-08-30T18:35:47.535Z,25.76
2022-08-30T18:38:50.780Z,25.60
2022-08-30T18:41:54.824Z,25.55
2022-08-30T18:45:00.130Z,25.48
2022-08-30T18:48:20.588Z,25.44
2022-08-30T18:51:26.116Z,25.53
2022-08-30T18:54:30.664Z,25.43
2022-08-30T18:57:35.214Z,25.30
2022-08-30T19:00:38.368Z,25.37
2022-08-30T19:03:41.840Z,25.34
2022-08-30T19:06:47.126Z,25.32
2022-08-30T19:09:49.597Z,25.17
2022-08-30T19:12:54.001Z,25.16
2022-08-30T19:15:59.808Z,25.22
2022-08-30T19:19:03.543Z,25.15
2022-08-30T19:22:05.942Z,25.00
2022-08-30T19:25:10.387Z,25.08
2022-08-30T19:28:14.074Z,24.99
2022-08-30T19:31:18.999Z,25.03
2022-08-30T19:34:21.895Z,24.99
2022-08-30T19:37:26.828Z,24.84
2022-08-30T19:40:29.711Z,24.80
2022-08-30T19:43:32.702Z,24.78
2022-08-30T19:46:35.236Z,24.85
2022-08-30T19:49:40.436Z,24.70
2022-08-30T19:52:51.024Z,24.79
2022-08-30T19:55:56.769Z,24.71
2022-08-30T19:59:02.081Z,24.71
2022-08-30T20:02:10.875Z,24.68
2022-08-30T20:05:16.448Z,24.54
2022-08-30T20:08:18.828Z,24.57
2022-08-30T20:11:21.428Z,24.60
2022-08-30T20:14:27.632Z,24.56
2022-08-30T20:17:53.400Z,24.53
2022-08-30T20:20:55.567Z,24.39
2022-08-30T20:23:58.532Z,24.34
2022-08-30T20:27:02.338Z,24.43
2022-08-30T20:30:06.860Z,24.33
2022-08-30T20:33:11.596Z,24.42
2022-08-30T20:36:17.546Z,24.26
2022-08-30T20:39:20.709Z,24.35
2022-08-30T20:42:25.545Z,24.30
2022-08-30T20:45:31.014Z,24.27
2022-08-30T20:48:35.178Z,24.25
2022-08-30T20:51:40.558Z,24.22
2022-08-30T20:54:50.489Z,24.20
2022-08-30T20:57:57.164Z,24.02
2022-08-30T21:01:02.700Z,24.07
2022-08-30T21:04:08.267Z,24.11
2022-08-30T21:07:10.907Z,23.96
2022-08-30T21:10:23.229Z,23.99
2022-08-30T21:13:30.287Z,23.97
2022-08-30T21:16:40.683Z,23.85
2022-08-30T21:19:44.215Z,23.94
2022-08-30T21:22:47.249Z,23.88
2022-08-30T21:25:50.451Z,23.79
2022-08-30T21:29:02.930Z,23.86
2022-08-30T21:32:05.832Z,23.87
2022-08-30T21:35:27.943Z,23.84
2022-08-30T21:38:30.442Z,23.86
2022-08-30T21:41:33.548Z,23.86
2022-08-30T21:44:35.931Z,23.84
2022-08-30T21:47:42.247Z,23.83
2022-08-30T21:50:48.552Z,23.77
2022-08-30T21:53:50.852Z,23.78
2022-08-30T21:56:57.604Z,23.71
2022-08-30T22:00:06.355Z,23.66
2022-08-30T22:03:09.134Z,23.72
2022-08-30T22:06:13.273Z,23.75
2022-08-30T22:09:17.059Z,23.73
2022-08-30T22:12:19.648Z,23.67
2022-08-30T22:15:22.372Z,23.69
2022-08-30T22:18:31.062Z,23.68
2022-08-30T22:21:36.514Z,23.53
2022-08-30T22:24:40.441Z,23.60
2022-08-30T22:27:42.695Z,23.57
2022-08-30T22:30:45.568Z,23.55
2022-08-30T22:33:48.252Z,23.56
2022-08-30T22:36:50.820Z,23.50
2022-08-30T22:39:53.061Z,23.38
2022-08-30T22:42:55.596Z,23.46
2022-08-30T22:45:58.152Z,23.45
2022-08-30T22:49:04.073Z,23.32
2022-08-30T22:52:06.741Z,23.41
2022-08-30T22:55:09.598Z,23.33
2022-08-30T22:58:12.024Z,23.17
2022-08-30T23:01:24.138Z,23.11
2022-08-30T23:04:27.547Z,23.24
2022-08-30T23:07:33.117Z,23.22
2022-08-30T23:10:36.028Z,23.20
2022-08-30T23:13:39.680Z,23.07
2022-08-30T23:16:41.975Z,23.21
2022-08-30T23:19:44.694Z,23.21
2022-08-30T23:22:47.050Z,23.16
2022-08-30T23:26:08.243Z,22.99
2022-08-30T23:29:29.433Z,22.96
2022-08-30T23:32:51.361Z,23.07
2022-08-30T23:36:12.247Z,22.91
2022-08-30T23:39:33.260Z,22.86
2022-08-30T23:42:54.273Z,22.94
2022-08-30T23:46:19.035Z,22.88
2022-08-30T23:49:40.589Z,22.88
2022-08-30T23:53:01.437Z,22.74
2022-08-30T23:56:22.247Z,22.82
2022-08-30T23:59:45.665Z,22.78
